Hamnavoe — VSTY7 — position and weather

sailwx.info

Track history (hours):
 
Tides and Currents Weather Stations Pressure Air Temp Water Temp Dewpoint Dewpoint Depression Visibility Wind Speed Wind Dir Waves Ship Positions

Hamnavoe

Operator: NorthLink Orkey & Shetland Ferries Ltd

Last reported at 2016-May-24 21:33 UTC. Time now 2016-May-24 21:34 UTC.
Position N 58°58' W 003°18'.

Length 112 m; draft 4.2 m.

Type: Ship. MMSI: 235449000.

Date/timePositionNaut miles runAvg speedWind from/ knotsBaromVisibWave heightAir tempDewpointWater temp
2016-May-24 21:33N 58°58' W 003°18'0 0.0
2016-May-24 20:33N 58°58' W 003°18'0 0.0
2016-May-24 19:33N 58°58' W 003°18'1111.3
2016-May-24 18:33N 58°48' W 003°29'1211.6
2016-May-24 17:33N 58°37' W 003°32'10 9.8
2016-May-24 16:33N 58°46' W 003°30'1313.1
2016-May-24 15:33N 58°58' W 003°18'0 0.0
2016-May-24 14:33N 58°58' W 003°18'0 0.0
2016-May-24 13:33N 58°58' W 003°18'0 0.0
2016-May-24 12:33N 58°58' W 003°18'0 0.0
2016-May-24 11:33N 58°58' W 003°18'0 0.0
2016-May-24 10:33N 58°58' W 003°18'0 0.0
2016-May-24 09:33N 58°58' W 003°18'7 6.6
2016-May-24 08:34N 58°53' W 003°27'1717.0
2016-May-24 07:33N 58°37' W 003°32'4 3.6
2016-May-24 06:33N 58°40' W 003°31'1817.8
2016-May-24 05:33N 58°57' W 003°19'1 1.1
2016-May-24 04:33N 58°58' W 003°18'0 0.0
2016-May-24 03:33N 58°58' W 003°18'0 0.0
2016-May-24 02:33N 58°58' W 003°18'0 0.0
2016-May-24 01:33N 58°58' W 003°18'0 0.0
2016-May-24 00:33N 58°58' W 003°18'0 0.0
2016-May-23 23:33N 58°58' W 003°18'0 0.0
2016-May-23 22:33N 58°58' W 003°18'0 0.0
2016-May-23 21:33N 58°58' W 003°18'0 0.0
2016-May-23 20:33N 58°58' W 003°18'0 0.0
2016-May-23 19:33N 58°58' W 003°18'1111.1
2016-May-23 18:33N 58°48' W 003°29'1211.8
2016-May-23 17:33N 58°37' W 003°32'10 9.6
2016-May-23 16:33N 58°46' W 003°30'1313.2
2016-May-23 15:33N 58°58' W 003°18'0 0.0
2016-May-23 14:32N 58°58' W 003°18'0 0.0
2016-May-23 13:20N 58°58' W 003°18'0 0.0
2016-May-23 12:32N 58°58' W 003°18'0 0.0
2016-May-23 11:32N 58°58' W 003°18'0 0.0
2016-May-23 10:32N 58°58' W 003°18'0 0.0
2016-May-23 09:32N 58°58' W 003°18'9 9.0
2016-May-23 08:33N 58°51' W 003°27'1414.2
2016-May-23 07:34N 58°37' W 003°32'5 5.2
2016-May-23 06:33N 58°42' W 003°30'1716.7
2016-May-23 05:33N 58°57' W 003°17'1 0.8
2016-May-23 04:34N 58°58' W 003°18'0 0.0
2016-May-23 03:34N 58°58' W 003°18'0 0.0
2016-May-23 02:33N 58°58' W 003°18'0 0.0
2016-May-23 01:33N 58°58' W 003°18'0 0.0
2016-May-23 00:33N 58°58' W 003°18'0 0.0
2016-May-22 23:33N 58°58' W 003°18'0 0.0
2016-May-22 22:33N 58°58' W 003°18'0 0.0
2016-May-22 21:34N 58°58' W 003°18'0 0.0
2016-May-22 20:34N 58°58' W 003°18'0 0.0
2016-May-22 19:33N 58°58' W 003°18'1211.5
2016-May-22 18:33N 58°48' W 003°29'1111.4
2016-May-22 17:33N 58°37' W 003°32'10 9.6
2016-May-22 16:33N 58°46' W 003°29'1313.0
2016-May-22 15:34N 58°58' W 003°18'1 1.2
2016-May-22 14:33N 58°57' W 003°19'11 8.5
2016-May-22 13:18N 58°46' W 003°17'912.2
2016-May-22 12:34N 58°55' W 003°14'3 3.5
2016-May-22 11:33N 58°58' W 003°18'1211.5
2016-May-22 10:33N 58°48' W 003°29'1111.4
2016-May-22 09:34N 58°37' W 003°32'1414.1
2016-May-22 08:33N 58°51' W 003°28'9 8.7
2016-May-22 07:32N 58°58' W 003°18'0 0.0
2016-May-22 06:32N 58°58' W 003°18'0 0.0
2016-May-22 05:32N 58°58' W 003°18'0 0.0
2016-May-22 04:32N 58°58' W 003°18'0 0.0
2016-May-22 03:32N 58°58' W 003°18'0 0.0
2016-May-22 02:32N 58°58' W 003°18'0 0.0
2016-May-22 01:32N 58°58' W 003°18'0 0.0
2016-May-22 00:32N 58°58' W 003°18'0 0.0
2016-May-21 23:32N 58°58' W 003°18'0 0.0
2016-May-21 22:32N 58°58' W 003°18'0 0.0
2016-May-21 21:32N 58°58' W 003°18'0 0.0
2016-May-21 20:32N 58°58' W 003°18'0 0.0
2016-May-21 19:32N 58°58' W 003°18'1111.2
2016-May-21 18:33N 58°49' W 003°29'1212.1
2016-May-21 17:33N 58°37' W 003°32'1010.3
2016-May-21 16:33N 58°47' W 003°29'1212.5
2016-May-21 15:34N 58°58' W 003°18'0 0.0
2016-May-21 14:33N 58°58' W 003°18'0 0.0
2016-May-21 13:33N 58°58' W 003°18'0 0.0
2016-May-21 12:33N 58°58' W 003°18'1110.7
2016-May-21 11:33N 58°49' W 003°28'1212.2
2016-May-21 10:33N 58°37' W 003°32'0 0.0
2016-May-21 09:31N 58°37' W 003°32'1617.1
2016-May-21 08:33N 58°53' W 003°28'7 6.7
2016-May-21 07:30N 58°58' W 003°18'0 0.0
2016-May-21 06:30N 58°58' W 003°18'0 0.0
2016-May-21 05:30N 58°58' W 003°18'0 0.0
2016-May-21 04:12N 58°58' W 003°18'0 0.0
2016-May-21 03:30N 58°58' W 003°18'0 0.0
2016-May-21 02:33N 58°58' W 003°18'0 0.0
2016-May-21 01:33N 58°58' W 003°18'0 0.0
2016-May-21 00:33N 58°58' W 003°18'0 0.0
2016-May-20 23:33N 58°58' W 003°18'0 0.0
2016-May-20 22:30N 58°58' W 003°18'0 0.0
2016-May-20 21:30N 58°58' W 003°18'0 0.0
2016-May-20 20:33N 58°58' W 003°18'0 0.0
2016-May-20 19:33N 58°58' W 003°18'1211.9
2016-May-20 18:34N 58°48' W 003°31'1111.3
2016-May-20 17:33N 58°37' W 003°32'1010.2
2016-May-20 16:33N 58°47' W 003°29'1312.6
2016-May-20 15:33N 58°58' W 003°18'0 0.0
2016-May-20 14:30N 58°58' W 003°18'0 0.0
2016-May-20 13:30N 58°58' W 003°18'0 0.0
2016-May-20 12:30N 58°58' W 003°18'0 0.0
2016-May-20 11:30N 58°58' W 003°18'0 0.0
2016-May-20 10:29N 58°58' W 003°18'0 0.0
2016-May-20 09:29N 58°58' W 003°18'7 7.4
2016-May-20 08:33N 58°53' W 003°28'1716.6
2016-May-20 07:33N 58°37' W 003°32'6 6.3
2016-May-20 06:34N 58°43' W 003°30'1615.9
2016-May-20 05:33N 58°57' W 003°18'0 0.5
2016-May-20 04:33N 58°58' W 003°18'0 0.0
2016-May-20 03:33N 58°58' W 003°18'0 0.0
2016-May-20 02:33N 58°58' W 003°18'0 0.0
2016-May-20 01:33N 58°58' W 003°18'0 0.0
2016-May-20 00:33N 58°58' W 003°18'0 0.0
2016-May-19 23:33N 58°58' W 003°18'0 0.0
2016-May-19 22:33N 58°58' W 003°18'0 0.0
2016-May-19 21:33N 58°58' W 003°18'0 0.0
2016-May-19 20:33N 58°58' W 003°18'0 0.0
2016-May-19 19:33N 58°58' W 003°18'1313.0
2016-May-19 18:33N 58°47' W 003°31'10 9.3
2016-May-19 17:27N 58°37' W 003°32'1112.6
2016-May-19 16:33N 58°48' W 003°30'1211.8
2016-May-19 15:33N 58°58' W 003°18'0 0.0
2016-May-19 14:33N 58°58' W 003°18'0 0.0
2016-May-19 13:33N 58°58' W 003°18'0 0.0
2016-May-19 12:33N 58°58' W 003°18'0 0.0
2016-May-19 11:33N 58°58' W 003°18'0 0.0
2016-May-19 10:33N 58°58' W 003°18'0 0.0
2016-May-19 09:33N 58°58' W 003°18'8 7.6
2016-May-19 08:33N 58°52' W 003°28'1615.9
2016-May-19 07:33N 58°37' W 003°32'6 5.6
2016-May-19 06:33N 58°42' W 003°30'1616.4
2016-May-19 05:33N 58°57' W 003°18'1 0.5
2016-May-19 04:31N 58°58' W 003°18'0 0.0
2016-May-19 03:31N 58°58' W 003°18'0 0.0
2016-May-19 02:31N 58°58' W 003°18'0 0.0
2016-May-19 01:31N 58°58' W 003°18'0 0.0
2016-May-19 00:31N 58°58' W 003°18'0 0.0
2016-May-18 23:25N 58°58' W 003°18'0 0.0
2016-May-18 22:31N 58°58' W 003°18'0 0.0
2016-May-18 21:31N 58°58' W 003°18'0 0.0
2016-May-18 20:28N 58°58' W 003°18'0 0.0
2016-May-18 19:32N 58°58' W 003°18'1212.0
2016-May-18 18:33N 58°48' W 003°29'1111.2
2016-May-18 17:33N 58°37' W 003°32'10 9.7
2016-May-18 16:33N 58°46' W 003°30'1313.1
2016-May-18 15:33N 58°58' W 003°18'0 0.0
2016-May-18 14:31N 58°58' W 003°18'0 0.0
2016-May-18 13:31N 58°58' W 003°18'0 0.0
2016-May-18 12:31N 58°58' W 003°18'0 0.0
2016-May-18 11:31N 58°58' W 003°18'0 0.0
2016-May-18 10:31N 58°58' W 003°18'0 0.0
2016-May-18 09:32N 58°58' W 003°18'6 6.6
2016-May-18 08:33N 58°54' W 003°27'1716.9
2016-May-18 07:32N 58°37' W 003°32'6 5.5
2016-May-18 06:32N 58°42' W 003°30'1616.8
2016-May-18 05:33N 58°57' W 003°17'1 0.6
2016-May-18 04:24N 58°58' W 003°18'0 0.0
2016-May-18 03:30N 58°58' W 003°18'0 0.0
2016-May-18 02:30N 58°58' W 003°18'0 0.0
2016-May-17 22:24N 58°58' W 003°18'0 0.0
2016-May-17 21:30N 58°58' W 003°18'0 0.0
2016-May-17 20:33N 58°58' W 003°18'0 0.0
2016-May-17 19:31N 58°58' W 003°18'1212.3
2016-May-17 18:33N 58°47' W 003°29'11 8.1
2016-May-17 17:12N 58°37' W 003°32'1015.4
2016-May-17 16:33N 58°46' W 003°29'1312.5
2016-May-17 15:32N 58°58' W 003°18'0 0.0
2016-May-17 14:29N 58°58' W 003°18'0 0.0
2016-May-17 13:29N 58°58' W 003°18'0 0.0
2016-May-17 12:32N 58°58' W 003°18'0 0.0
2016-May-17 11:32N 58°58' W 003°18'0 0.0
2016-May-17 10:32N 58°58' W 003°18'0 0.0
2016-May-17 09:29N 58°58' W 003°18'8 8.7
2016-May-17 08:33N 58°52' W 003°28'1515.3
2016-May-17 07:33N 58°37' W 003°32'5 5.4
2016-May-17 06:33N 58°42' W 003°31'1716.7
2016-May-17 05:33N 58°57' W 003°17'1 0.7
2016-May-17 04:29N 58°58' W 003°18'0 0.0
2016-May-17 03:29N 58°58' W 003°18'0 0.0
2016-May-17 02:29N 58°58' W 003°18'0 0.0
2016-May-17 01:29N 58°58' W 003°18'0 0.0
2016-May-17 00:29N 58°58' W 003°18'0 0.0
2016-May-16 23:29N 58°58' W 003°18'0 0.0
2016-May-16 22:29N 58°58' W 003°18'0 0.0
2016-May-16 21:32N 58°58' W 003°18'0 0.0
2016-May-16 20:29N 58°58' W 003°18'0 0.0
2016-May-16 19:32N 58°58' W 003°18'1111.4
2016-May-16 18:33N 58°48' W 003°29'1211.7
2016-May-16 17:33N 58°37' W 003°32'1211.6
2016-May-16 16:33N 58°48' W 003°29'1111.2
2016-May-16 15:33N 58°58' W 003°18'0 0.0
2016-May-16 14:32N 58°58' W 003°18'0 0.0
2016-May-16 13:32N 58°58' W 003°18'0 0.0
2016-May-16 12:29N 58°58' W 003°18'0 0.0
2016-May-16 11:32N 58°58' W 003°18'0 0.0
2016-May-16 10:32N 58°58' W 003°18'0 0.0
2016-May-16 09:33N 58°58' W 003°18'8 7.6
2016-May-16 08:33N 58°52' W 003°28'1615.7
2016-May-16 07:33N 58°37' W 003°32'5 5.3
2016-May-16 06:33N 58°42' W 003°31'1716.8
2016-May-16 05:33N 58°57' W 003°18'1 0.6
2016-May-16 04:33N 58°58' W 003°18'0 0.0
2016-May-16 03:33N 58°58' W 003°18'0 0.0
2016-May-16 02:33N 58°58' W 003°18'0 0.0
2016-May-16 01:33N 58°58' W 003°18'0 0.0
2016-May-16 00:33N 58°58' W 003°18'0 0.0
2016-May-15 23:33N 58°58' W 003°18'0 0.0
2016-May-15 22:33N 58°58' W 003°18'0 0.0
2016-May-15 21:33N 58°58' W 003°18'0 0.0
2016-May-15 20:32N 58°58' W 003°18'0 0.0
2016-May-15 19:33N 58°58' W 003°18'1111.2
2016-May-15 18:33N 58°48' W 003°29'1211.6
2016-May-15 17:33N 58°37' W 003°32'1111.0
2016-May-15 16:33N 58°47' W 003°29'1211.9
2016-May-15 15:34N 58°58' W 003°18'0 0.0
2016-May-15 14:33N 58°58' W 003°18'0 0.0
2016-May-15 13:33N 58°58' W 003°18'0 0.0
2016-May-15 12:34N 58°58' W 003°18'1111.3
2016-May-15 11:33N 58°48' W 003°29'1211.6
2016-May-15 10:34N 58°37' W 003°32'0 0.0
2016-May-15 09:33N 58°37' W 003°32'1413.8
2016-May-15 08:33N 58°50' W 003°29'9 9.4
2016-May-15 07:33N 58°58' W 003°18'0 0.0
2016-May-15 06:33N 58°58' W 003°18'0 0.0
2016-May-15 05:33N 58°58' W 003°18'0 0.0
2016-May-15 04:33N 58°58' W 003°18'0 0.0
2016-May-15 03:33N 58°58' W 003°18'0 0.0
2016-May-15 02:33N 58°58' W 003°18'0 0.0
2016-May-15 01:33N 58°58' W 003°18'0 0.0
2016-May-15 00:33N 58°58' W 003°18'0 0.0
2016-May-14 23:30N 58°58' W 003°18'0 0.0
2016-May-14 22:33N 58°58' W 003°18'  
Track history (hours):
 
Tides and Currents Weather Stations Pressure Air Temp Water Temp Dewpoint Dewpoint Depression Visibility Wind Speed Wind Dir Waves Ship Positions

Hamnavoe

Operator: NorthLink Orkey & Shetland Ferries Ltd

Last reported at 2016-May-24 21:33 UTC. Time now 2016-May-24 21:34 UTC.
Position N 58°58' W 003°18'.

Length 112 m; draft 4.2 m.

Type: Ship. MMSI: 235449000.

Date/timePositionNaut miles runAvg speedWind from/ knotsBaromVisibWave heightAir tempDewpointWater temp
2016-May-24 21:33N 58°58' W 003°18'0 0.0
2016-May-24 20:33N 58°58' W 003°18'0 0.0
2016-May-24 19:33N 58°58' W 003°18'1111.3
2016-May-24 18:33N 58°48' W 003°29'1211.6
2016-May-24 17:33N 58°37' W 003°32'10 9.8
2016-May-24 16:33N 58°46' W 003°30'1313.1
2016-May-24 15:33N 58°58' W 003°18'0 0.0
2016-May-24 14:33N 58°58' W 003°18'0 0.0
2016-May-24 13:33N 58°58' W 003°18'0 0.0
2016-May-24 12:33N 58°58' W 003°18'0 0.0
2016-May-24 11:33N 58°58' W 003°18'0 0.0
2016-May-24 10:33N 58°58' W 003°18'0 0.0
2016-May-24 09:33N 58°58' W 003°18'7 6.6
2016-May-24 08:34N 58°53' W 003°27'1717.0
2016-May-24 07:33N 58°37' W 003°32'4 3.6
2016-May-24 06:33N 58°40' W 003°31'1817.8
2016-May-24 05:33N 58°57' W 003°19'1 1.1
2016-May-24 04:33N 58°58' W 003°18'0 0.0
2016-May-24 03:33N 58°58' W 003°18'0 0.0
2016-May-24 02:33N 58°58' W 003°18'0 0.0
2016-May-24 01:33N 58°58' W 003°18'0 0.0
2016-May-24 00:33N 58°58' W 003°18'0 0.0
2016-May-23 23:33N 58°58' W 003°18'0 0.0
2016-May-23 22:33N 58°58' W 003°18'0 0.0
2016-May-23 21:33N 58°58' W 003°18'0 0.0
2016-May-23 20:33N 58°58' W 003°18'0 0.0
2016-May-23 19:33N 58°58' W 003°18'1111.1
2016-May-23 18:33N 58°48' W 003°29'1211.8
2016-May-23 17:33N 58°37' W 003°32'10 9.6
2016-May-23 16:33N 58°46' W 003°30'1313.2
2016-May-23 15:33N 58°58' W 003°18'0 0.0
2016-May-23 14:32N 58°58' W 003°18'0 0.0
2016-May-23 13:20N 58°58' W 003°18'0 0.0
2016-May-23 12:32N 58°58' W 003°18'0 0.0
2016-May-23 11:32N 58°58' W 003°18'0 0.0
2016-May-23 10:32N 58°58' W 003°18'0 0.0
2016-May-23 09:32N 58°58' W 003°18'9 9.0
2016-May-23 08:33N 58°51' W 003°27'1414.2
2016-May-23 07:34N 58°37' W 003°32'5 5.2
2016-May-23 06:33N 58°42' W 003°30'1716.7
2016-May-23 05:33N 58°57' W 003°17'1 0.8
2016-May-23 04:34N 58°58' W 003°18'0 0.0
2016-May-23 03:34N 58°58' W 003°18'0 0.0
2016-May-23 02:33N 58°58' W 003°18'0 0.0
2016-May-23 01:33N 58°58' W 003°18'0 0.0
2016-May-23 00:33N 58°58' W 003°18'0 0.0
2016-May-22 23:33N 58°58' W 003°18'0 0.0
2016-May-22 22:33N 58°58' W 003°18'0 0.0
2016-May-22 21:34N 58°58' W 003°18'0 0.0
2016-May-22 20:34N 58°58' W 003°18'0 0.0
2016-May-22 19:33N 58°58' W 003°18'1211.5
2016-May-22 18:33N 58°48' W 003°29'1111.4
2016-May-22 17:33N 58°37' W 003°32'10 9.6
2016-May-22 16:33N 58°46' W 003°29'1313.0
2016-May-22 15:34N 58°58' W 003°18'1 1.2
2016-May-22 14:33N 58°57' W 003°19'11 8.5
2016-May-22 13:18N 58°46' W 003°17'912.2
2016-May-22 12:34N 58°55' W 003°14'3 3.5
2016-May-22 11:33N 58°58' W 003°18'1211.5
2016-May-22 10:33N 58°48' W 003°29'1111.4
2016-May-22 09:34N 58°37' W 003°32'1414.1
2016-May-22 08:33N 58°51' W 003°28'9 8.7
2016-May-22 07:32N 58°58' W 003°18'0 0.0
2016-May-22 06:32N 58°58' W 003°18'0 0.0
2016-May-22 05:32N 58°58' W 003°18'0 0.0
2016-May-22 04:32N 58°58' W 003°18'0 0.0
2016-May-22 03:32N 58°58' W 003°18'0 0.0
2016-May-22 02:32N 58°58' W 003°18'0 0.0
2016-May-22 01:32N 58°58' W 003°18'0 0.0
2016-May-22 00:32N 58°58' W 003°18'0 0.0
2016-May-21 23:32N 58°58' W 003°18'0 0.0
2016-May-21 22:32N 58°58' W 003°18'0 0.0
2016-May-21 21:32N 58°58' W 003°18'0 0.0
2016-May-21 20:32N 58°58' W 003°18'0 0.0
2016-May-21 19:32N 58°58' W 003°18'1111.2
2016-May-21 18:33N 58°49' W 003°29'1212.1
2016-May-21 17:33N 58°37' W 003°32'1010.3
2016-May-21 16:33N 58°47' W 003°29'1212.5
2016-May-21 15:34N 58°58' W 003°18'0 0.0
2016-May-21 14:33N 58°58' W 003°18'0 0.0
2016-May-21 13:33N 58°58' W 003°18'0 0.0
2016-May-21 12:33N 58°58' W 003°18'1110.7
2016-May-21 11:33N 58°49' W 003°28'1212.2
2016-May-21 10:33N 58°37' W 003°32'0 0.0
2016-May-21 09:31N 58°37' W 003°32'1617.1
2016-May-21 08:33N 58°53' W 003°28'7 6.7
2016-May-21 07:30N 58°58' W 003°18'0 0.0
2016-May-21 06:30N 58°58' W 003°18'0 0.0
2016-May-21 05:30N 58°58' W 003°18'0 0.0
2016-May-21 04:12N 58°58' W 003°18'0 0.0
2016-May-21 03:30N 58°58' W 003°18'0 0.0
2016-May-21 02:33N 58°58' W 003°18'0 0.0
2016-May-21 01:33N 58°58' W 003°18'0 0.0
2016-May-21 00:33N 58°58' W 003°18'0 0.0
2016-May-20 23:33N 58°58' W 003°18'0 0.0
2016-May-20 22:30N 58°58' W 003°18'0 0.0
2016-May-20 21:30N 58°58' W 003°18'0 0.0
2016-May-20 20:33N 58°58' W 003°18'0 0.0
2016-May-20 19:33N 58°58' W 003°18'1211.9
2016-May-20 18:34N 58°48' W 003°31'1111.3
2016-May-20 17:33N 58°37' W 003°32'1010.2
2016-May-20 16:33N 58°47' W 003°29'1312.6
2016-May-20 15:33N 58°58' W 003°18'0 0.0
2016-May-20 14:30N 58°58' W 003°18'0 0.0
2016-May-20 13:30N 58°58' W 003°18'0 0.0
2016-May-20 12:30N 58°58' W 003°18'0 0.0
2016-May-20 11:30N 58°58' W 003°18'0 0.0
2016-May-20 10:29N 58°58' W 003°18'0 0.0
2016-May-20 09:29N 58°58' W 003°18'7 7.4
2016-May-20 08:33N 58°53' W 003°28'1716.6
2016-May-20 07:33N 58°37' W 003°32'6 6.3
2016-May-20 06:34N 58°43' W 003°30'1615.9
2016-May-20 05:33N 58°57' W 003°18'0 0.5
2016-May-20 04:33N 58°58' W 003°18'0 0.0
2016-May-20 03:33N 58°58' W 003°18'0 0.0
2016-May-20 02:33N 58°58' W 003°18'0 0.0
2016-May-20 01:33N 58°58' W 003°18'0 0.0
2016-May-20 00:33N 58°58' W 003°18'0 0.0
2016-May-19 23:33N 58°58' W 003°18'0 0.0
2016-May-19 22:33N 58°58' W 003°18'0 0.0
2016-May-19 21:33N 58°58' W 003°18'0 0.0
2016-May-19 20:33N 58°58' W 003°18'0 0.0
2016-May-19 19:33N 58°58' W 003°18'1313.0
2016-May-19 18:33N 58°47' W 003°31'10 9.3
2016-May-19 17:27N 58°37' W 003°32'1112.6
2016-May-19 16:33N 58°48' W 003°30'1211.8
2016-May-19 15:33N 58°58' W 003°18'0 0.0
2016-May-19 14:33N 58°58' W 003°18'0 0.0
2016-May-19 13:33N 58°58' W 003°18'0 0.0
2016-May-19 12:33N 58°58' W 003°18'0 0.0
2016-May-19 11:33N 58°58' W 003°18'0 0.0
2016-May-19 10:33N 58°58' W 003°18'0 0.0
2016-May-19 09:33N 58°58' W 003°18'8 7.6
2016-May-19 08:33N 58°52' W 003°28'1615.9
2016-May-19 07:33N 58°37' W 003°32'6 5.6
2016-May-19 06:33N 58°42' W 003°30'1616.4
2016-May-19 05:33N 58°57' W 003°18'1 0.5
2016-May-19 04:31N 58°58' W 003°18'0 0.0
2016-May-19 03:31N 58°58' W 003°18'0 0.0
2016-May-19 02:31N 58°58' W 003°18'0 0.0
2016-May-19 01:31N 58°58' W 003°18'0 0.0
2016-May-19 00:31N 58°58' W 003°18'0 0.0
2016-May-18 23:25N 58°58' W 003°18'0 0.0
2016-May-18 22:31N 58°58' W 003°18'0 0.0
2016-May-18 21:31N 58°58' W 003°18'0 0.0
2016-May-18 20:28N 58°58' W 003°18'0 0.0
2016-May-18 19:32N 58°58' W 003°18'1212.0
2016-May-18 18:33N 58°48' W 003°29'1111.2
2016-May-18 17:33N 58°37' W 003°32'10 9.7
2016-May-18 16:33N 58°46' W 003°30'1313.1
2016-May-18 15:33N 58°58' W 003°18'0 0.0
2016-May-18 14:31N 58°58' W 003°18'0 0.0
2016-May-18 13:31N 58°58' W 003°18'0 0.0
2016-May-18 12:31N 58°58' W 003°18'0 0.0
2016-May-18 11:31N 58°58' W 003°18'0 0.0
2016-May-18 10:31N 58°58' W 003°18'0 0.0
2016-May-18 09:32N 58°58' W 003°18'6 6.6
2016-May-18 08:33N 58°54' W 003°27'1716.9
2016-May-18 07:32N 58°37' W 003°32'6 5.5
2016-May-18 06:32N 58°42' W 003°30'1616.8
2016-May-18 05:33N 58°57' W 003°17'1 0.6
2016-May-18 04:24N 58°58' W 003°18'0 0.0
2016-May-18 03:30N 58°58' W 003°18'0 0.0
2016-May-18 02:30N 58°58' W 003°18'0 0.0
2016-May-17 22:24N 58°58' W 003°18'0 0.0
2016-May-17 21:30N 58°58' W 003°18'0 0.0
2016-May-17 20:33N 58°58' W 003°18'0 0.0
2016-May-17 19:31N 58°58' W 003°18'1212.3
2016-May-17 18:33N 58°47' W 003°29'11 8.1
2016-May-17 17:12N 58°37' W 003°32'1015.4
2016-May-17 16:33N 58°46' W 003°29'1312.5
2016-May-17 15:32N 58°58' W 003°18'0 0.0
2016-May-17 14:29N 58°58' W 003°18'0 0.0
2016-May-17 13:29N 58°58' W 003°18'0 0.0
2016-May-17 12:32N 58°58' W 003°18'0 0.0
2016-May-17 11:32N 58°58' W 003°18'0 0.0
2016-May-17 10:32N 58°58' W 003°18'0 0.0
2016-May-17 09:29N 58°58' W 003°18'8 8.7
2016-May-17 08:33N 58°52' W 003°28'1515.3
2016-May-17 07:33N 58°37' W 003°32'5 5.4
2016-May-17 06:33N 58°42' W 003°31'1716.7
2016-May-17 05:33N 58°57' W 003°17'1 0.7
2016-May-17 04:29N 58°58' W 003°18'0 0.0
2016-May-17 03:29N 58°58' W 003°18'0 0.0
2016-May-17 02:29N 58°58' W 003°18'0 0.0
2016-May-17 01:29N 58°58' W 003°18'0 0.0
2016-May-17 00:29N 58°58' W 003°18'0 0.0
2016-May-16 23:29N 58°58' W 003°18'0 0.0
2016-May-16 22:29N 58°58' W 003°18'0 0.0
2016-May-16 21:32N 58°58' W 003°18'0 0.0
2016-May-16 20:29N 58°58' W 003°18'0 0.0
2016-May-16 19:32N 58°58' W 003°18'1111.4
2016-May-16 18:33N 58°48' W 003°29'1211.7
2016-May-16 17:33N 58°37' W 003°32'1211.6
2016-May-16 16:33N 58°48' W 003°29'1111.2
2016-May-16 15:33N 58°58' W 003°18'0 0.0
2016-May-16 14:32N 58°58' W 003°18'0 0.0
2016-May-16 13:32N 58°58' W 003°18'0 0.0
2016-May-16 12:29N 58°58' W 003°18'0 0.0
2016-May-16 11:32N 58°58' W 003°18'0 0.0
2016-May-16 10:32N 58°58' W 003°18'0 0.0
2016-May-16 09:33N 58°58' W 003°18'8 7.6
2016-May-16 08:33N 58°52' W 003°28'1615.7
2016-May-16 07:33N 58°37' W 003°32'5 5.3
2016-May-16 06:33N 58°42' W 003°31'1716.8
2016-May-16 05:33N 58°57' W 003°18'1 0.6
2016-May-16 04:33N 58°58' W 003°18'0 0.0
2016-May-16 03:33N 58°58' W 003°18'0 0.0
2016-May-16 02:33N 58°58' W 003°18'0 0.0
2016-May-16 01:33N 58°58' W 003°18'0 0.0
2016-May-16 00:33N 58°58' W 003°18'0 0.0
2016-May-15 23:33N 58°58' W 003°18'0 0.0
2016-May-15 22:33N 58°58' W 003°18'0 0.0
2016-May-15 21:33N 58°58' W 003°18'0 0.0
2016-May-15 20:32N 58°58' W 003°18'0 0.0
2016-May-15 19:33N 58°58' W 003°18'1111.2
2016-May-15 18:33N 58°48' W 003°29'1211.6
2016-May-15 17:33N 58°37' W 003°32'1111.0
2016-May-15 16:33N 58°47' W 003°29'1211.9
2016-May-15 15:34N 58°58' W 003°18'0 0.0
2016-May-15 14:33N 58°58' W 003°18'0 0.0
2016-May-15 13:33N 58°58' W 003°18'0 0.0
2016-May-15 12:34N 58°58' W 003°18'1111.3
2016-May-15 11:33N 58°48' W 003°29'1211.6
2016-May-15 10:34N 58°37' W 003°32'0 0.0
2016-May-15 09:33N 58°37' W 003°32'1413.8
2016-May-15 08:33N 58°50' W 003°29'9 9.4
2016-May-15 07:33N 58°58' W 003°18'0 0.0
2016-May-15 06:33N 58°58' W 003°18'0 0.0
2016-May-15 05:33N 58°58' W 003°18'0 0.0
2016-May-15 04:33N 58°58' W 003°18'0 0.0
2016-May-15 03:33N 58°58' W 003°18'0 0.0
2016-May-15 02:33N 58°58' W 003°18'0 0.0
2016-May-15 01:33N 58°58' W 003°18'0 0.0
2016-May-15 00:33N 58°58' W 003°18'0 0.0
2016-May-14 23:30N 58°58' W 003°18'0 0.0
2016-May-14 22:33N 58°58' W 003°18'  

Dump ship's entire track history